createdAt,value
2023-05-21T00:00:41.837Z,453.00
2023-05-21T00:01:41.866Z,453.00
2023-05-21T00:02:41.924Z,452.00
2023-05-21T00:03:42.054Z,451.00
2023-05-21T00:04:41.832Z,454.00
2023-05-21T00:05:41.841Z,456.00
2023-05-21T00:06:41.787Z,452.00
2023-05-21T00:07:41.801Z,450.00
2023-05-21T00:08:41.800Z,451.00
2023-05-21T00:09:41.794Z,456.00
2023-05-21T00:10:41.787Z,455.00
2023-05-21T00:11:41.791Z,456.00
2023-05-21T00:12:42.008Z,456.00
2023-05-21T00:13:41.744Z,455.00
2023-05-21T00:14:41.771Z,452.00
2023-05-21T00:15:41.724Z,452.00
2023-05-21T00:16:41.742Z,453.00
2023-05-21T00:17:41.833Z,459.00
2023-05-21T00:18:41.732Z,461.00
2023-05-21T00:19:41.710Z,463.00
2023-05-21T00:20:41.751Z,461.00
2023-05-21T00:21:41.685Z,458.00
2023-05-21T00:22:41.699Z,456.00
2023-05-21T00:23:41.679Z,456.00
2023-05-21T00:24:41.690Z,459.00
2023-05-21T00:25:41.690Z,462.00
2023-05-21T00:26:41.621Z,463.00
2023-05-21T00:27:41.628Z,463.00
2023-05-21T00:28:41.677Z,460.00
2023-05-21T00:29:44.161Z,460.00
2023-05-21T00:30:41.649Z,461.00
2023-05-21T00:31:41.694Z,459.00
2023-05-21T00:32:41.663Z,459.00
2023-05-21T00:33:41.613Z,459.00
2023-05-21T00:34:41.584Z,457.00
2023-05-21T00:35:41.609Z,454.00
2023-05-21T00:36:41.575Z,452.00
2023-05-21T00:37:41.613Z,451.00
2023-05-21T00:38:41.568Z,450.00
2023-05-21T00:39:41.512Z,449.00
2023-05-21T00:40:41.584Z,449.00
2023-05-21T00:41:41.569Z,449.00
2023-05-21T00:42:41.601Z,451.00
2023-05-21T00:43:41.538Z,451.00
2023-05-21T00:44:41.507Z,454.00
2023-05-21T00:45:41.576Z,454.00
2023-05-21T00:46:41.512Z,459.00
2023-05-21T00:47:41.504Z,463.00
2023-05-21T00:48:41.473Z,466.00
2023-05-21T00:49:42.076Z,464.00
2023-05-21T00:50:41.486Z,461.00
2023-05-21T00:51:41.479Z,457.00
2023-05-21T00:52:41.455Z,456.00
2023-05-21T00:53:41.499Z,457.00
2023-05-21T00:54:41.450Z,457.00
2023-05-21T00:55:41.483Z,459.00
2023-05-21T00:56:41.443Z,457.00
2023-05-21T00:57:41.443Z,459.00
2023-05-21T00:58:41.418Z,457.00
2023-05-21T00:59:41.410Z,458.00
2023-05-21T01:00:41.413Z,455.00
2023-05-21T01:01:41.473Z,455.00
2023-05-21T01:02:41.447Z,454.00
2023-05-21T01:03:41.487Z,456.00
2023-05-21T01:04:41.416Z,457.00
2023-05-21T01:05:41.437Z,456.00
2023-05-21T01:06:41.393Z,457.00
2023-05-21T01:07:41.374Z,456.00
2023-05-21T01:08:41.364Z,456.00
2023-05-21T01:09:41.327Z,452.00
2023-05-21T01:10:41.369Z,451.00
2023-05-21T01:11:41.332Z,453.00
2023-05-21T01:12:41.322Z,453.00
2023-05-21T01:13:41.416Z,453.00
2023-05-21T01:14:41.294Z,451.00
2023-05-21T01:15:41.361Z,450.00
2023-05-21T01:16:41.367Z,453.00
2023-05-21T01:17:41.329Z,453.00
2023-05-21T01:18:41.354Z,453.00
2023-05-21T01:19:41.303Z,453.00
2023-05-21T01:20:41.284Z,454.00
2023-05-21T01:21:41.286Z,452.00
2023-05-21T01:22:41.274Z,454.00
2023-05-21T01:23:41.261Z,455.00
2023-05-21T01:24:41.214Z,457.00
2023-05-21T01:25:41.283Z,460.00
2023-05-21T01:26:41.233Z,459.00
2023-05-21T01:27:41.226Z,459.00
2023-05-21T01:28:41.196Z,458.00
2023-05-21T01:29:41.240Z,460.00
2023-05-21T01:30:41.311Z,461.00
2023-05-21T01:31:41.311Z,459.00
2023-05-21T01:32:41.398Z,458.00
2023-05-21T01:33:41.402Z,459.00
2023-05-21T01:34:41.372Z,457.00
2023-05-21T01:35:41.431Z,456.00
2023-05-21T01:36:41.542Z,455.00
2023-05-21T01:37:41.565Z,456.00
2023-05-21T01:38:41.625Z,457.00
2023-05-21T01:39:41.691Z,456.00
2023-05-21T01:40:41.801Z,454.00
2023-05-21T01:41:41.782Z,454.00
2023-05-21T01:42:41.841Z,453.00
2023-05-21T01:43:41.930Z,455.00
2023-05-21T01:44:41.923Z,455.00
2023-05-21T01:45:41.983Z,457.00
2023-05-21T01:46:42.042Z,460.00
2023-05-21T01:47:42.072Z,460.00
2023-05-21T01:48:42.071Z,460.00
2023-05-21T01:49:42.092Z,459.00
2023-05-21T01:50:42.108Z,456.00
2023-05-21T01:51:42.131Z,456.00
2023-05-21T01:52:42.126Z,456.00
2023-05-21T01:53:42.146Z,454.00
2023-05-21T01:54:42.147Z,452.00
2023-05-21T01:55:42.266Z,450.00
2023-05-21T01:56:42.195Z,451.00
2023-05-21T01:57:42.207Z,456.00
2023-05-21T01:58:42.218Z,457.00
2023-05-21T01:59:42.279Z,459.00
2023-05-21T02:00:42.285Z,461.00
2023-05-21T02:01:42.326Z,463.00
2023-05-21T02:02:42.388Z,463.00
2023-05-21T02:03:42.434Z,463.00
2023-05-21T02:04:42.325Z,463.00
2023-05-21T02:05:42.354Z,465.00
2023-05-21T02:06:42.386Z,468.00
2023-05-21T02:07:42.432Z,468.00
2023-05-21T02:08:42.445Z,464.00
2023-05-21T02:09:42.508Z,461.00
2023-05-21T02:10:42.544Z,460.00
2023-05-21T02:11:42.562Z,459.00
2023-05-21T02:12:42.642Z,457.00
2023-05-21T02:13:42.742Z,458.00
2023-05-21T02:14:42.738Z,459.00
2023-05-21T02:15:42.751Z,460.00
2023-05-21T02:16:42.800Z,462.00
2023-05-21T02:17:42.853Z,461.00
2023-05-21T02:18:42.909Z,461.00
2023-05-21T02:19:42.936Z,460.00
2023-05-21T02:20:42.919Z,461.00
2023-05-21T02:21:42.995Z,460.00
2023-05-21T02:22:43.009Z,458.00
2023-05-21T02:23:43.116Z,458.00
2023-05-21T02:24:43.121Z,457.00
2023-05-21T02:25:43.222Z,457.00
2023-05-21T02:26:43.225Z,458.00
2023-05-21T02:27:43.309Z,461.00
2023-05-21T02:28:43.354Z,460.00
2023-05-21T02:29:43.386Z,457.00
2023-05-21T02:30:43.424Z,453.00
2023-05-21T02:31:43.489Z,452.00
2023-05-21T02:32:43.627Z,454.00
2023-05-21T02:33:43.611Z,455.00
2023-05-21T02:34:43.669Z,454.00
2023-05-21T02:35:43.761Z,457.00
2023-05-21T02:36:43.735Z,459.00
2023-05-21T02:37:43.901Z,458.00
2023-05-21T02:38:43.985Z,461.00
2023-05-21T02:39:43.926Z,463.00
2023-05-21T02:40:43.979Z,466.00
2023-05-21T02:41:44.004Z,465.00
2023-05-21T02:42:44.067Z,466.00
2023-05-21T02:43:44.118Z,466.00
2023-05-21T02:44:44.169Z,463.00
2023-05-21T02:45:44.286Z,461.00
2023-05-21T02:46:44.294Z,463.00
2023-05-21T02:47:44.514Z,464.00
2023-05-21T02:48:44.420Z,467.00
2023-05-21T02:49:44.505Z,468.00
2023-05-21T02:50:44.551Z,470.00
2023-05-21T02:51:44.566Z,469.00
2023-05-21T02:52:44.614Z,468.00
2023-05-21T02:53:44.684Z,470.00
2023-05-21T02:54:44.758Z,470.00
2023-05-21T02:55:44.841Z,471.00
2023-05-21T02:56:45.886Z,470.00
2023-05-21T02:57:44.899Z,470.00
2023-05-21T02:58:44.980Z,472.00
2023-05-21T02:59:45.024Z,471.00
2023-05-21T03:00:45.088Z,471.00
2023-05-21T03:01:45.346Z,470.00
2023-05-21T03:02:45.311Z,469.00
2023-05-21T03:03:45.377Z,466.00
2023-05-21T03:04:45.306Z,466.00
2023-05-21T03:05:45.421Z,465.00
2023-05-21T03:06:45.490Z,465.00
2023-05-21T03:07:45.518Z,466.00
2023-05-21T03:08:45.592Z,466.00
2023-05-21T03:09:45.616Z,465.00
2023-05-21T03:10:45.680Z,463.00
2023-05-21T03:11:45.695Z,463.00
2023-05-21T03:12:45.682Z,461.00
2023-05-21T03:13:45.786Z,462.00
2023-05-21T03:14:45.775Z,463.00
2023-05-21T03:15:45.821Z,463.00
2023-05-21T03:16:45.951Z,461.00
2023-05-21T03:17:45.858Z,459.00
2023-05-21T03:18:45.871Z,459.00
2023-05-21T03:19:45.920Z,460.00
2023-05-21T03:20:45.917Z,461.00
2023-05-21T03:21:45.912Z,461.00
2023-05-21T03:22:45.933Z,461.00
2023-05-21T03:23:45.951Z,463.00
2023-05-21T03:24:45.932Z,467.00
2023-05-21T03:25:46.029Z,468.00
2023-05-21T03:26:45.962Z,471.00
2023-05-21T03:27:45.928Z,469.00
2023-05-21T03:28:45.941Z,469.00
2023-05-21T03:29:45.982Z,467.00
2023-05-21T03:30:45.969Z,467.00
2023-05-21T03:31:45.999Z,469.00
2023-05-21T03:32:46.036Z,473.00
2023-05-21T03:33:45.961Z,476.00
2023-05-21T03:34:45.989Z,474.00
2023-05-21T03:35:45.984Z,473.00
2023-05-21T03:36:45.935Z,474.00
2023-05-21T03:37:45.958Z,473.00
2023-05-21T03:38:45.965Z,474.00
2023-05-21T03:39:45.983Z,471.00
2023-05-21T03:40:46.006Z,468.00
2023-05-21T03:41:46.012Z,467.00
2023-05-21T03:42:46.010Z,468.00
2023-05-21T03:43:46.034Z,471.00
2023-05-21T03:44:46.102Z,471.00
2023-05-21T03:45:46.101Z,469.00
2023-05-21T03:46:46.093Z,469.00
2023-05-21T03:47:46.115Z,469.00
2023-05-21T03:48:46.149Z,470.00
2023-05-21T03:49:46.091Z,473.00
2023-05-21T03:50:46.144Z,475.00
2023-05-21T03:51:46.078Z,474.00
2023-05-21T03:52:46.159Z,472.00
2023-05-21T03:53:46.129Z,470.00
2023-05-21T03:54:46.174Z,473.00
2023-05-21T03:55:46.162Z,474.00
2023-05-21T03:56:46.133Z,473.00
2023-05-21T03:57:46.164Z,471.00
2023-05-21T03:58:46.154Z,472.00
2023-05-21T03:59:46.206Z,470.00
2023-05-21T04:00:46.216Z,467.00
2023-05-21T04:01:46.338Z,467.00
2023-05-21T04:02:46.430Z,467.00
2023-05-21T04:03:46.566Z,467.00
2023-05-21T04:04:46.496Z,469.00
2023-05-21T04:05:46.505Z,469.00
2023-05-21T04:06:46.513Z,469.00
2023-05-21T04:07:46.539Z,467.00
2023-05-21T04:08:46.629Z,468.00
2023-05-21T04:09:46.685Z,469.00
2023-05-21T04:10:46.759Z,468.00
2023-05-21T04:11:46.751Z,466.00
2023-05-21T04:12:46.821Z,466.00
2023-05-21T04:13:46.816Z,465.00
2023-05-21T04:14:46.819Z,465.00
2023-05-21T04:15:47.014Z,465.00
2023-05-21T04:16:47.017Z,465.00
2023-05-21T04:17:47.625Z,467.00
2023-05-21T04:18:47.185Z,468.00
2023-05-21T04:19:47.100Z,469.00
2023-05-21T04:20:47.161Z,469.00
2023-05-21T04:21:47.186Z,470.00
2023-05-21T04:22:47.244Z,474.00
2023-05-21T04:23:47.222Z,474.00
2023-05-21T04:24:47.213Z,473.00
2023-05-21T04:25:47.254Z,474.00
2023-05-21T04:26:47.258Z,473.00
2023-05-21T04:27:47.291Z,476.00
2023-05-21T04:28:47.324Z,476.00
2023-05-21T04:29:48.989Z,477.00
2023-05-21T04:30:47.352Z,478.00
2023-05-21T04:31:47.411Z,478.00
2023-05-21T04:32:47.333Z,477.00
2023-05-21T04:33:47.328Z,477.00
2023-05-21T04:34:47.354Z,479.00
2023-05-21T04:35:47.442Z,477.00
2023-05-21T04:36:47.293Z,476.00
2023-05-21T04:37:47.286Z,478.00
2023-05-21T04:38:47.276Z,480.00
2023-05-21T04:39:47.338Z,480.00
2023-05-21T04:40:47.237Z,482.00
2023-05-21T04:41:47.326Z,483.00
2023-05-21T04:42:47.222Z,486.00
2023-05-21T04:43:47.208Z,484.00
2023-05-21T04:44:47.235Z,483.00
2023-05-21T04:45:47.263Z,481.00
2023-05-21T04:46:47.272Z,481.00
2023-05-21T04:47:47.223Z,481.00
2023-05-21T04:48:47.188Z,478.00
2023-05-21T04:49:47.182Z,476.00
2023-05-21T04:50:47.213Z,476.00
2023-05-21T04:51:47.164Z,477.00
2023-05-21T04:52:47.156Z,477.00
2023-05-21T04:53:47.157Z,478.00
2023-05-21T04:54:47.162Z,477.00
2023-05-21T04:55:47.172Z,477.00
2023-05-21T04:56:47.160Z,476.00
2023-05-21T04:57:47.134Z,475.00
2023-05-21T04:58:47.141Z,474.00
2023-05-21T04:59:47.117Z,471.00
2023-05-21T05:00:47.366Z,471.00
2023-05-21T05:01:47.075Z,469.00
2023-05-21T05:02:47.209Z,468.00
2023-05-21T05:03:47.102Z,469.00
2023-05-21T05:04:47.084Z,470.00
2023-05-21T05:05:47.106Z,469.00
2023-05-21T05:06:47.082Z,471.00
2023-05-21T05:07:47.067Z,472.00
2023-05-21T05:08:47.020Z,470.00
2023-05-21T05:09:47.050Z,467.00
2023-05-21T05:10:47.044Z,466.00
2023-05-21T05:11:47.023Z,466.00
2023-05-21T05:12:47.058Z,465.00
2023-05-21T05:13:47.030Z,464.00
2023-05-21T05:14:47.034Z,463.00
2023-05-21T05:15:49.363Z,463.00
2023-05-21T05:16:47.063Z,463.00
2023-05-21T05:17:47.043Z,462.00
2023-05-21T05:18:47.032Z,462.00
2023-05-21T05:19:46.962Z,462.00
2023-05-21T05:20:47.015Z,463.00
2023-05-21T05:21:46.981Z,464.00
2023-05-21T05:22:47.301Z,464.00
2023-05-21T05:23:46.957Z,464.00
2023-05-21T05:24:46.944Z,466.00
2023-05-21T05:25:46.940Z,466.00
2023-05-21T05:26:46.917Z,466.00
2023-05-21T05:27:46.954Z,465.00
2023-05-21T05:28:46.909Z,464.00
2023-05-21T05:29:46.928Z,464.00
2023-05-21T05:30:47.028Z,461.00
2023-05-21T05:31:46.902Z,461.00
2023-05-21T05:32:46.980Z,463.00
2023-05-21T05:33:46.899Z,465.00
2023-05-21T05:34:46.896Z,466.00
2023-05-21T05:35:46.918Z,468.00
2023-05-21T05:36:46.878Z,470.00
2023-05-21T05:37:46.882Z,466.00
2023-05-21T05:38:46.882Z,463.00
2023-05-21T05:39:46.827Z,463.00
2023-05-21T05:40:46.858Z,463.00
2023-05-21T05:41:46.852Z,462.00
2023-05-21T05:42:46.810Z,463.00
2023-05-21T05:43:46.833Z,462.00
2023-05-21T05:44:46.845Z,462.00
2023-05-21T05:45:46.849Z,461.00
2023-05-21T05:46:46.889Z,462.00
2023-05-21T05:47:46.854Z,463.00
2023-05-21T05:48:46.823Z,458.00
2023-05-21T05:49:46.752Z,458.00
2023-05-21T05:50:46.772Z,458.00
2023-05-21T05:51:46.777Z,457.00
2023-05-21T05:52:46.779Z,459.00
2023-05-21T05:53:46.765Z,458.00
2023-05-21T05:54:46.720Z,458.00
2023-05-21T05:55:46.729Z,456.00
2023-05-21T05:56:46.744Z,453.00
2023-05-21T05:57:46.745Z,453.00
2023-05-21T05:58:46.710Z,451.00
2023-05-21T05:59:46.724Z,451.00
2023-05-21T06:00:46.740Z,451.00
2023-05-21T06:01:46.747Z,451.00
2023-05-21T06:02:46.803Z,452.00
2023-05-21T06:03:46.790Z,454.00
2023-05-21T06:04:46.741Z,453.00
2023-05-21T06:05:46.808Z,457.00
2023-05-21T06:06:46.767Z,460.00
2023-05-21T06:07:46.793Z,460.00
2023-05-21T06:08:46.815Z,461.00
2023-05-21T06:09:46.864Z,461.00
2023-05-21T06:10:46.891Z,461.00
2023-05-21T06:11:46.921Z,461.00
2023-05-21T06:12:46.945Z,461.00
2023-05-21T06:13:46.954Z,465.00
2023-05-21T06:14:46.924Z,467.00
2023-05-21T06:15:46.965Z,464.00
2023-05-21T06:16:46.955Z,462.00
2023-05-21T06:17:47.048Z,460.00
2023-05-21T06:18:47.110Z,456.00
2023-05-21T06:19:47.125Z,453.00
2023-05-21T06:20:47.185Z,451.00
2023-05-21T06:21:47.238Z,451.00
2023-05-21T06:22:47.264Z,451.00
2023-05-21T06:23:47.325Z,447.00
2023-05-21T06:24:47.361Z,449.00
2023-05-21T06:25:47.420Z,449.00
2023-05-21T06:26:47.402Z,449.00
2023-05-21T06:27:47.481Z,446.00
2023-05-21T06:28:47.493Z,444.00
2023-05-21T06:29:47.496Z,445.00
2023-05-21T06:30:47.567Z,450.00
2023-05-21T06:31:47.566Z,455.00
2023-05-21T06:32:47.635Z,456.00
2023-05-21T06:33:47.692Z,455.00
2023-05-21T06:34:47.577Z,452.00
2023-05-21T06:35:47.592Z,449.00
2023-05-21T06:36:47.620Z,448.00
2023-05-21T06:37:47.607Z,447.00
2023-05-21T06:38:47.617Z,449.00
2023-05-21T06:39:47.661Z,446.00
2023-05-21T06:40:47.668Z,447.00
2023-05-21T06:41:47.693Z,446.00
2023-05-21T06:42:47.689Z,446.00
2023-05-21T06:43:47.677Z,448.00
2023-05-21T06:44:47.756Z,446.00
2023-05-21T06:45:47.804Z,448.00
2023-05-21T06:46:47.772Z,450.00
2023-05-21T06:47:47.865Z,449.00
2023-05-21T06:48:47.783Z,449.00
2023-05-21T06:49:47.838Z,454.00
2023-05-21T06:50:47.836Z,455.00
2023-05-21T06:51:47.813Z,452.00
2023-05-21T06:52:47.832Z,448.00
2023-05-21T06:53:47.858Z,446.00
2023-05-21T06:54:47.910Z,445.00
2023-05-21T06:55:47.939Z,444.00
2023-05-21T06:56:47.941Z,444.00
2023-05-21T06:57:47.947Z,445.00
2023-05-21T06:58:47.939Z,446.00
2023-05-21T06:59:47.963Z,441.00
2023-05-21T07:00:48.033Z,439.00
2023-05-21T07:01:48.050Z,437.00
2023-05-21T07:02:48.125Z,437.00
2023-05-21T07:03:48.078Z,434.00
2023-05-21T07:04:48.078Z,434.00
2023-05-21T07:05:48.052Z,434.00
2023-05-21T07:06:48.084Z,432.00
2023-05-21T07:07:48.108Z,435.00
2023-05-21T07:08:48.177Z,437.00
2023-05-21T07:09:48.230Z,439.00
2023-05-21T07:10:48.225Z,441.00
2023-05-21T07:11:48.255Z,442.00
2023-05-21T07:12:48.331Z,441.00
2023-05-21T07:13:48.412Z,438.00
2023-05-21T07:14:48.475Z,437.00
2023-05-21T07:15:48.580Z,436.00
2023-05-21T07:16:48.652Z,438.00
2023-05-21T07:17:48.785Z,438.00
2023-05-21T07:18:48.769Z,436.00
2023-05-21T07:19:48.806Z,436.00
2023-05-21T07:20:48.859Z,435.00
2023-05-21T07:21:48.881Z,436.00
2023-05-21T07:22:48.885Z,436.00
2023-05-21T07:23:48.942Z,445.00
2023-05-21T07:24:48.949Z,449.00
2023-05-21T07:25:48.960Z,446.00
2023-05-21T07:26:48.913Z,444.00
2023-05-21T07:27:48.924Z,439.00
2023-05-21T07:28:48.984Z,436.00
2023-05-21T07:29:48.982Z,430.00
2023-05-21T07:30:49.039Z,433.00
2023-05-21T07:31:49.085Z,432.00
2023-05-21T07:32:49.174Z,432.00
2023-05-21T07:33:49.192Z,432.00
2023-05-21T07:34:49.232Z,434.00
2023-05-21T07:35:49.332Z,435.00
2023-05-21T07:36:49.345Z,434.00
2023-05-21T07:37:49.403Z,435.00
2023-05-21T07:38:49.453Z,434.00
2023-05-21T07:39:50.117Z,434.00
2023-05-21T07:40:49.556Z,435.00
2023-05-21T07:41:49.581Z,437.00
2023-05-21T07:42:49.595Z,443.00
2023-05-21T07:43:49.591Z,441.00
2023-05-21T07:44:49.612Z,437.00
2023-05-21T07:45:49.638Z,436.00
2023-05-21T07:46:49.727Z,434.00
2023-05-21T07:47:49.685Z,430.00
2023-05-21T07:48:49.673Z,430.00
2023-05-21T07:49:49.722Z,429.00
2023-05-21T07:50:49.679Z,430.00
2023-05-21T07:51:49.712Z,429.00
2023-05-21T07:52:49.714Z,429.00
2023-05-21T07:53:49.696Z,425.00
2023-05-21T07:54:49.720Z,423.00
2023-05-21T07:55:49.747Z,424.00
2023-05-21T07:56:49.694Z,422.00
2023-05-21T07:57:49.847Z,423.00
2023-05-21T07:58:49.859Z,421.00
2023-05-21T07:59:49.924Z,423.00
2023-05-21T08:00:49.962Z,421.00
2023-05-21T08:01:50.031Z,421.00
2023-05-21T08:02:50.172Z,419.00
2023-05-21T08:03:50.230Z,422.00
2023-05-21T08:04:50.144Z,423.00
2023-05-21T08:05:50.181Z,423.00
2023-05-21T08:06:50.207Z,423.00
2023-05-21T08:07:50.254Z,425.00
2023-05-21T08:08:50.281Z,423.00
2023-05-21T08:09:50.302Z,422.00
2023-05-21T08:10:50.430Z,424.00
2023-05-21T08:11:50.376Z,427.00
2023-05-21T08:12:50.409Z,422.00
2023-05-21T08:13:50.390Z,424.00
2023-05-21T08:14:50.465Z,421.00
2023-05-21T08:15:52.926Z,420.00
2023-05-21T08:16:50.482Z,419.00
2023-05-21T08:17:50.417Z,418.00
2023-05-21T08:18:50.389Z,416.00
2023-05-21T08:19:50.391Z,417.00
2023-05-21T08:20:50.400Z,419.00
2023-05-21T08:21:58.017Z,419.00
2023-05-21T08:22:50.347Z,418.00
2023-05-21T08:23:50.356Z,419.00
2023-05-21T08:24:50.373Z,421.00
2023-05-21T08:25:50.376Z,420.00
2023-05-21T08:26:50.323Z,417.00
2023-05-21T08:27:52.308Z,413.00
2023-05-21T08:28:50.341Z,413.00
2023-05-21T08:29:50.318Z,413.00
2023-05-21T08:30:50.331Z,413.00
2023-05-21T08:31:50.362Z,413.00
2023-05-21T08:32:50.390Z,413.00
2023-05-21T08:33:50.312Z,413.00
2023-05-21T08:34:50.372Z,412.00
2023-05-21T08:35:50.334Z,413.00
2023-05-21T08:36:50.348Z,415.00
2023-05-21T08:37:50.347Z,414.00
2023-05-21T08:38:50.359Z,412.00
2023-05-21T08:39:50.368Z,411.00
2023-05-21T08:40:50.402Z,410.00
2023-05-21T08:41:50.416Z,410.00
2023-05-21T08:42:50.390Z,410.00
2023-05-21T08:43:50.847Z,410.00
2023-05-21T08:44:50.392Z,410.00
2023-05-21T08:45:50.486Z,410.00
2023-05-21T08:46:50.426Z,411.00
2023-05-21T08:47:50.495Z,413.00
2023-05-21T08:48:50.495Z,413.00
2023-05-21T08:49:50.564Z,417.00
2023-05-21T08:50:50.648Z,418.00
2023-05-21T08:51:50.657Z,416.00
2023-05-21T08:52:50.694Z,413.00
2023-05-21T08:53:50.755Z,412.00
2023-05-21T08:54:50.780Z,411.00
2023-05-21T08:55:51.707Z,411.00
2023-05-21T08:56:50.801Z,412.00
2023-05-21T08:57:50.847Z,414.00
2023-05-21T08:58:50.929Z,414.00
2023-05-21T08:59:50.910Z,414.00
2023-05-21T09:00:51.034Z,414.00
2023-05-21T09:01:51.050Z,416.00
2023-05-21T09:02:51.017Z,414.00
2023-05-21T09:03:51.077Z,414.00
2023-05-21T09:04:50.991Z,410.00
2023-05-21T09:05:51.117Z,408.00
2023-05-21T09:06:51.097Z,408.00
2023-05-21T09:07:52.500Z,406.00
2023-05-21T09:08:51.126Z,404.00
2023-05-21T09:09:51.159Z,403.00
2023-05-21T09:10:59.301Z,402.00
2023-05-21T09:11:51.477Z,400.00
2023-05-21T09:12:51.297Z,400.00
2023-05-21T09:13:51.307Z,401.00
2023-05-21T09:14:51.269Z,403.00
2023-05-21T09:15:51.359Z,406.00
2023-05-21T09:16:51.299Z,406.00
2023-05-21T09:17:51.311Z,406.00
2023-05-21T09:18:51.341Z,406.00
2023-05-21T09:19:51.245Z,408.00
2023-05-21T09:20:51.218Z,408.00
2023-05-21T09:21:51.422Z,408.00
2023-05-21T09:22:51.684Z,408.00
2023-05-21T09:23:52.157Z,409.00
2023-05-21T09:24:51.130Z,410.00
2023-05-21T09:25:51.107Z,409.00
2023-05-21T09:26:51.131Z,408.00
2023-05-21T09:27:51.171Z,406.00
2023-05-21T09:28:51.215Z,408.00
2023-05-21T09:29:51.263Z,409.00
2023-05-21T09:30:51.282Z,405.00
2023-05-21T09:31:51.375Z,404.00
2023-05-21T09:32:51.409Z,404.00
2023-05-21T09:33:51.466Z,404.00
2023-05-21T09:34:51.465Z,403.00
2023-05-21T09:35:51.512Z,404.00
2023-05-21T09:36:51.576Z,404.00
2023-05-21T09:37:51.579Z,405.00
2023-05-21T09:38:51.662Z,403.00
2023-05-21T09:39:51.653Z,407.00
2023-05-21T09:40:51.745Z,406.00
2023-05-21T09:41:51.717Z,408.00
2023-05-21T09:42:51.806Z,408.00
2023-05-21T09:43:51.836Z,410.00
2023-05-21T09:44:51.816Z,409.00
2023-05-21T09:45:51.956Z,408.00
2023-05-21T09:46:51.925Z,408.00
2023-05-21T09:47:52.035Z,407.00
2023-05-21T09:48:51.976Z,406.00
2023-05-21T09:49:52.018Z,404.00
2023-05-21T09:50:52.096Z,404.00
2023-05-21T09:51:52.128Z,403.00
2023-05-21T09:52:52.648Z,401.00
2023-05-21T09:53:52.164Z,402.00
2023-05-21T09:54:52.156Z,402.00
2023-05-21T09:55:52.248Z,403.00
2023-05-21T09:56:52.291Z,400.00
2023-05-21T09:57:52.291Z,404.00
2023-05-21T09:58:52.338Z,398.00
2023-05-21T09:59:52.348Z,396.00
2023-05-21T10:00:52.369Z,397.00
2023-05-21T10:01:52.502Z,400.00
2023-05-21T10:02:52.445Z,401.00
2023-05-21T10:03:52.519Z,401.00
2023-05-21T10:04:52.538Z,401.00
2023-05-21T10:05:52.546Z,405.00
2023-05-21T10:06:52.595Z,404.00
2023-05-21T10:07:52.633Z,405.00
2023-05-21T10:08:52.619Z,403.00
2023-05-21T10:09:52.681Z,403.00
2023-05-21T10:10:52.736Z,403.00
2023-05-21T10:11:52.742Z,401.00
2023-05-21T10:12:52.739Z,399.00
2023-05-21T10:13:52.745Z,397.00
2023-05-21T10:14:52.895Z,398.00
2023-05-21T10:15:52.944Z,399.00
2023-05-21T10:16:52.981Z,400.00
2023-05-21T10:17:53.001Z,402.00
2023-05-21T10:18:53.074Z,404.00
2023-05-21T10:19:53.050Z,403.00
2023-05-21T10:20:53.077Z,404.00
2023-05-21T10:21:53.149Z,403.00
2023-05-21T10:22:53.168Z,403.00
2023-05-21T10:23:53.184Z,406.00
2023-05-21T10:24:53.173Z,405.00
2023-05-21T10:25:53.259Z,405.00
2023-05-21T10:26:53.245Z,404.00
2023-05-21T10:27:53.366Z,404.00
2023-05-21T10:28:53.364Z,404.00
2023-05-21T10:29:53.382Z,406.00
2023-05-21T10:30:53.408Z,407.00
2023-05-21T10:31:53.528Z,407.00
2023-05-21T10:32:53.639Z,407.00
2023-05-21T10:33:53.493Z,405.00
2023-05-21T10:34:53.582Z,403.00
2023-05-21T10:35:53.578Z,405.00
2023-05-21T10:36:53.608Z,408.00
2023-05-21T10:37:53.611Z,406.00
2023-05-21T10:38:53.681Z,403.00
2023-05-21T10:39:53.705Z,406.00
2023-05-21T10:40:53.709Z,404.00
2023-05-21T10:41:54.776Z,404.00
2023-05-21T10:42:53.819Z,400.00
2023-05-21T10:43:53.841Z,402.00
2023-05-21T10:44:54.994Z,401.00
2023-05-21T10:45:53.924Z,402.00
2023-05-21T10:46:53.911Z,403.00
2023-05-21T10:47:54.549Z,404.00
2023-05-21T10:48:53.959Z,406.00
2023-05-21T10:49:54.022Z,408.00
2023-05-21T10:50:54.024Z,410.00
2023-05-21T10:51:54.112Z,411.00
2023-05-21T10:52:54.094Z,410.00
2023-05-21T10:53:54.104Z,410.00
2023-05-21T10:54:54.208Z,409.00
2023-05-21T10:55:54.219Z,409.00
2023-05-21T10:56:54.281Z,412.00
2023-05-21T10:57:54.241Z,411.00
2023-05-21T10:58:54.259Z,410.00
2023-05-21T10:59:54.297Z,408.00
2023-05-21T11:00:54.359Z,408.00
2023-05-21T11:01:54.367Z,410.00
2023-05-21T11:02:54.475Z,408.00
2023-05-21T11:03:54.460Z,410.00
2023-05-21T11:04:54.427Z,410.00
2023-05-21T11:05:54.493Z,410.00
2023-05-21T11:06:54.554Z,410.00
2023-05-21T11:07:54.601Z,409.00
2023-05-21T11:08:55.708Z,409.00
2023-05-21T11:09:54.732Z,409.00
2023-05-21T11:10:54.752Z,407.00
2023-05-21T11:11:54.766Z,407.00
2023-05-21T11:12:54.788Z,406.00
2023-05-21T11:13:54.840Z,407.00
2023-05-21T11:14:54.857Z,408.00
2023-05-21T11:15:54.916Z,412.00
2023-05-21T11:16:54.975Z,407.00
2023-05-21T11:17:55.073Z,412.00
2023-05-21T11:18:55.119Z,414.00
2023-05-21T11:19:55.040Z,413.00
2023-05-21T11:20:55.106Z,412.00
2023-05-21T11:21:55.103Z,413.00
2023-05-21T11:22:55.106Z,413.00
2023-05-21T11:23:55.142Z,412.00
2023-05-21T11:24:55.164Z,419.00
2023-05-21T11:25:55.253Z,410.00
2023-05-21T11:26:55.198Z,414.00
2023-05-21T11:27:55.256Z,415.00
2023-05-21T11:28:55.271Z,414.00
2023-05-21T11:29:55.311Z,413.00
2023-05-21T11:30:55.403Z,412.00
2023-05-21T11:31:55.442Z,415.00
2023-05-21T11:32:55.483Z,416.00
2023-05-21T11:33:55.501Z,414.00
2023-05-21T11:34:55.531Z,418.00
2023-05-21T11:35:55.587Z,419.00
2023-05-21T11:36:55.564Z,416.00
2023-05-21T11:37:55.570Z,415.00
2023-05-21T11:38:55.628Z,416.00
2023-05-21T11:39:55.651Z,413.00
2023-05-21T11:40:55.838Z,412.00
2023-05-21T11:41:55.761Z,410.00
2023-05-21T11:42:55.874Z,411.00
2023-05-21T11:43:55.769Z,412.00
2023-05-21T11:44:55.779Z,412.00
2023-05-21T11:45:55.854Z,409.00
2023-05-21T11:46:55.963Z,408.00
2023-05-21T11:47:55.950Z,409.00
2023-05-21T11:48:55.904Z,412.00
2023-05-21T11:49:55.978Z,412.00
2023-05-21T11:50:55.975Z,411.00
2023-05-21T11:51:56.076Z,410.00
2023-05-21T11:52:56.016Z,413.00
2023-05-21T11:53:56.093Z,412.00
2023-05-21T11:54:56.140Z,413.00
2023-05-21T11:55:56.174Z,413.00
2023-05-21T11:56:56.236Z,415.00
2023-05-21T11:57:56.180Z,413.00
2023-05-21T11:58:56.251Z,411.00
2023-05-21T11:59:56.311Z,411.00
2023-05-21T12:00:56.317Z,412.00
2023-05-21T12:01:56.373Z,414.00
2023-05-21T12:02:56.784Z,413.00
2023-05-21T12:03:56.489Z,410.00
2023-05-21T12:04:56.409Z,408.00
2023-05-21T12:05:56.519Z,407.00
2023-05-21T12:06:56.550Z,406.00
2023-05-21T12:07:56.720Z,405.00
2023-05-21T12:08:56.591Z,404.00
2023-05-21T12:09:56.620Z,406.00
2023-05-21T12:10:56.639Z,407.00
2023-05-21T12:11:56.654Z,409.00
2023-05-21T12:12:57.484Z,409.00
2023-05-21T12:13:56.772Z,408.00
2023-05-21T12:14:56.706Z,407.00
2023-05-21T12:15:56.796Z,405.00
2023-05-21T12:16:56.902Z,404.00
2023-05-21T12:17:57.081Z,408.00
2023-05-21T12:18:56.913Z,408.00
2023-05-21T12:19:56.890Z,406.00
2023-05-21T12:20:56.971Z,409.00
2023-05-21T12:21:56.988Z,411.00
2023-05-21T12:22:57.033Z,410.00
2023-05-21T12:23:57.022Z,414.00
2023-05-21T12:24:57.089Z,415.00
2023-05-21T12:25:57.100Z,414.00
2023-05-21T12:26:57.108Z,414.00
2023-05-21T12:27:57.158Z,415.00
2023-05-21T12:28:57.182Z,416.00